createdAt,value
2023-02-20T00:00:29.927Z,57.75
2023-02-20T00:03:01.499Z,57.71
2023-02-20T00:05:34.732Z,57.81
2023-02-20T00:08:05.484Z,57.63
2023-02-20T00:10:35.960Z,57.64
2023-02-20T00:13:09.493Z,57.76
2023-02-20T00:15:45.786Z,57.89
2023-02-20T00:18:18.692Z,57.81
2023-02-20T00:20:52.941Z,58.00
2023-02-20T00:23:25.796Z,59.13
2023-02-20T00:25:56.053Z,58.45
2023-02-20T00:28:26.442Z,58.48
2023-02-20T00:31:00.270Z,58.22
2023-02-20T00:33:31.462Z,58.13
2023-02-20T00:36:09.984Z,58.27
2023-02-20T00:38:40.411Z,58.56
2023-02-20T00:41:11.449Z,58.74
2023-02-20T00:43:46.177Z,58.65
2023-02-20T00:46:17.694Z,59.09
2023-02-20T00:48:53.101Z,58.88
2023-02-20T00:51:49.680Z,58.63
2023-02-20T00:54:26.615Z,58.69
2023-02-20T00:57:00.158Z,58.82
2023-02-20T00:59:33.767Z,59.48
2023-02-20T01:02:04.159Z,59.25
2023-02-20T01:04:34.504Z,59.20
2023-02-20T01:07:10.598Z,61.10
2023-02-20T01:09:45.550Z,60.66
2023-02-20T01:12:26.534Z,60.45
2023-02-20T01:14:56.642Z,59.91
2023-02-20T01:17:26.644Z,59.98
2023-02-20T01:20:01.225Z,60.12
2023-02-20T01:22:39.373Z,60.08
2023-02-20T01:25:26.157Z,60.53
2023-02-20T01:27:58.418Z,60.31
2023-02-20T01:30:47.701Z,60.56
2023-02-20T01:33:21.400Z,60.32
2023-02-20T01:35:51.520Z,60.13
2023-02-20T01:38:27.628Z,60.27
2023-02-20T01:40:58.616Z,60.32
2023-02-20T01:43:30.520Z,60.37
2023-02-20T01:46:32.790Z,60.50
2023-02-20T01:49:11.930Z,60.33
2023-02-20T01:51:45.697Z,60.43
2023-02-20T01:54:28.020Z,60.23
2023-02-20T01:57:01.773Z,60.07
2023-02-20T01:59:36.065Z,60.32
2023-02-20T02:02:07.609Z,60.53
2023-02-20T02:04:39.998Z,60.51
2023-02-20T02:07:10.305Z,60.35
2023-02-20T02:09:48.737Z,60.65
2023-02-20T02:12:19.131Z,60.80
2023-02-20T02:14:49.356Z,60.84
2023-02-20T02:17:45.406Z,61.29
2023-02-20T02:20:55.395Z,61.49
2023-02-20T02:23:48.021Z,61.62
2023-02-20T02:26:41.459Z,61.71
2023-02-20T02:29:49.929Z,61.88
2023-02-20T02:32:53.762Z,61.86
2023-02-20T02:35:58.710Z,61.52
2023-02-20T02:38:36.012Z,61.63
2023-02-20T02:41:15.075Z,61.49
2023-02-20T02:43:52.379Z,61.40
2023-02-20T02:46:29.832Z,61.02
2023-02-20T02:49:06.576Z,61.35
2023-02-20T02:51:45.838Z,61.51
2023-02-20T02:54:21.104Z,61.59
2023-02-20T02:56:51.785Z,61.67
2023-02-20T02:59:27.529Z,61.87
2023-02-20T03:02:02.762Z,61.84
2023-02-20T03:04:35.615Z,62.05
2023-02-20T03:07:12.328Z,61.60
2023-02-20T03:09:48.034Z,61.41
2023-02-20T03:12:20.301Z,61.27
2023-02-20T03:15:12.772Z,61.34
2023-02-20T03:17:49.914Z,61.35
2023-02-20T03:20:25.183Z,61.66
2023-02-20T03:23:01.331Z,61.96
2023-02-20T03:25:36.685Z,61.78
2023-02-20T03:28:12.381Z,61.94
2023-02-20T03:30:46.312Z,61.48
2023-02-20T03:33:33.692Z,61.57
2023-02-20T03:36:20.397Z,61.50
2023-02-20T03:39:10.023Z,61.53
2023-02-20T03:41:55.377Z,61.68
2023-02-20T03:44:28.529Z,61.78
2023-02-20T03:47:02.141Z,61.63
2023-02-20T03:49:54.674Z,61.70
2023-02-20T03:52:26.596Z,61.88
2023-02-20T03:54:59.246Z,62.15
2023-02-20T03:57:33.607Z,61.93
2023-02-20T04:00:08.655Z,61.69
2023-02-20T04:02:48.454Z,61.68
2023-02-20T04:05:25.605Z,61.82
2023-02-20T04:08:01.806Z,61.76
2023-02-20T04:10:42.348Z,62.12
2023-02-20T04:13:15.318Z,62.30
2023-02-20T04:15:50.470Z,61.97
2023-02-20T04:18:23.352Z,61.89
2023-02-20T04:20:57.105Z,62.11
2023-02-20T04:23:41.206Z,62.02
2023-02-20T04:26:20.480Z,61.83
2023-02-20T04:28:53.404Z,61.82
2023-02-20T04:31:24.531Z,61.73
2023-02-20T04:33:54.906Z,61.69
2023-02-20T04:36:28.062Z,61.54
2023-02-20T04:39:01.079Z,61.71
2023-02-20T04:41:37.305Z,62.03
2023-02-20T04:44:31.990Z,61.95
2023-02-20T04:47:04.041Z,61.81
2023-02-20T04:49:34.532Z,61.82
2023-02-20T04:52:07.834Z,61.77
2023-02-20T04:54:38.105Z,61.75
2023-02-20T04:57:11.759Z,61.98
2023-02-20T04:59:41.779Z,61.82
2023-02-20T05:02:13.449Z,61.77
2023-02-20T05:04:43.873Z,61.75
2023-02-20T05:07:13.884Z,61.88
2023-02-20T05:09:47.080Z,62.18
2023-02-20T05:12:19.911Z,62.32
2023-02-20T05:14:49.960Z,62.42
2023-02-20T05:17:19.908Z,62.46
2023-02-20T05:19:49.953Z,62.46
2023-02-20T05:22:20.115Z,62.55
2023-02-20T05:24:53.191Z,62.41
2023-02-20T05:27:27.099Z,62.52
2023-02-20T05:29:59.156Z,62.52
2023-02-20T05:32:31.103Z,62.78
2023-02-20T05:35:01.539Z,63.16
2023-02-20T05:37:33.486Z,63.16
2023-02-20T05:40:05.987Z,63.19
2023-02-20T05:42:42.615Z,63.35
2023-02-20T05:45:12.740Z,63.86
2023-02-20T05:47:42.740Z,63.73
2023-02-20T05:50:13.139Z,64.14
2023-02-20T05:52:43.615Z,64.25
2023-02-20T05:55:13.782Z,64.72
2023-02-20T05:57:46.357Z,64.85
2023-02-20T06:00:17.137Z,64.87
2023-02-20T06:02:47.074Z,65.22
2023-02-20T06:05:17.494Z,65.27
2023-02-20T06:07:47.731Z,65.33
2023-02-20T06:10:18.540Z,65.55
2023-02-20T06:12:51.321Z,65.73
2023-02-20T06:15:21.482Z,65.67
2023-02-20T06:17:51.463Z,65.73
2023-02-20T06:20:36.462Z,65.83
2023-02-20T06:23:06.411Z,65.94
2023-02-20T06:25:36.363Z,65.91
2023-02-20T06:28:09.047Z,65.69
2023-02-20T06:30:39.207Z,65.50
2023-02-20T06:33:10.073Z,65.51
2023-02-20T06:35:40.130Z,65.34
2023-02-20T06:38:10.265Z,65.21
2023-02-20T06:40:41.350Z,65.22
2023-02-20T06:43:14.064Z,65.08
2023-02-20T06:45:44.049Z,65.00
2023-02-20T06:48:14.529Z,65.13
2023-02-20T06:50:44.691Z,65.15
2023-02-20T06:53:14.765Z,65.19
2023-02-20T06:55:44.904Z,64.87
2023-02-20T06:58:17.550Z,64.77
2023-02-20T07:00:47.763Z,64.89
2023-02-20T07:03:17.830Z,64.82
2023-02-20T07:05:49.972Z,64.95
2023-02-20T07:08:30.284Z,64.77
2023-02-20T07:11:01.019Z,64.08
2023-02-20T07:13:34.029Z,63.99
2023-02-20T07:16:04.137Z,63.65
2023-02-20T07:18:34.174Z,63.64
2023-02-20T07:21:04.692Z,63.88
2023-02-20T07:23:35.343Z,63.53
2023-02-20T07:26:08.493Z,63.26
2023-02-20T07:28:41.137Z,62.58
2023-02-20T07:31:11.143Z,62.60
2023-02-20T07:33:43.031Z,62.57
2023-02-20T07:36:13.890Z,62.35
2023-02-20T07:38:44.367Z,62.08
2023-02-20T07:41:14.437Z,61.66
2023-02-20T07:43:46.972Z,61.23
2023-02-20T07:46:19.951Z,60.97
2023-02-20T07:48:51.006Z,61.04
2023-02-20T07:51:20.908Z,61.22
2023-02-20T07:53:53.196Z,60.94
2023-02-20T07:56:24.547Z,60.73
2023-02-20T07:58:59.246Z,60.97
2023-02-20T08:01:30.586Z,60.77
2023-02-20T08:04:00.680Z,60.11
2023-02-20T08:06:30.758Z,60.07
2023-02-20T08:09:00.795Z,60.04
2023-02-20T08:11:30.798Z,59.60
2023-02-20T08:14:03.341Z,59.49
2023-02-20T08:16:33.915Z,58.92
2023-02-20T08:19:04.521Z,59.15
2023-02-20T08:21:34.477Z,58.80
2023-02-20T08:24:04.491Z,58.66
2023-02-20T08:26:34.776Z,58.52
2023-02-20T08:29:07.414Z,58.23
2023-02-20T08:31:37.437Z,57.86
2023-02-20T08:34:07.400Z,58.05
2023-02-20T08:36:37.740Z,57.73
2023-02-20T08:39:07.666Z,57.74
2023-02-20T08:41:37.588Z,57.28
2023-02-20T08:44:10.939Z,57.36
2023-02-20T08:46:40.941Z,57.34
2023-02-20T08:49:10.883Z,56.62
2023-02-20T08:51:40.877Z,56.49
2023-02-20T08:54:11.143Z,56.82
2023-02-20T08:56:41.218Z,56.54
2023-02-20T08:59:14.058Z,56.00
2023-02-20T09:01:44.487Z,55.92
2023-02-20T09:04:15.799Z,56.47
2023-02-20T09:06:45.779Z,55.73
2023-02-20T09:09:15.774Z,55.79
2023-02-20T09:11:45.958Z,55.58
2023-02-20T09:14:18.573Z,55.61
2023-02-20T09:16:48.666Z,55.62
2023-02-20T09:19:18.885Z,55.22
2023-02-20T09:21:49.131Z,54.58
2023-02-20T09:24:19.388Z,55.24
2023-02-20T09:26:49.350Z,54.53
2023-02-20T09:29:21.936Z,54.46
2023-02-20T09:31:52.045Z,54.00
2023-02-20T09:34:22.326Z,53.46
2023-02-20T09:36:53.729Z,53.45
2023-02-20T09:39:24.273Z,52.53
2023-02-20T09:42:09.422Z,52.76
2023-02-20T09:44:49.472Z,52.14
2023-02-20T09:47:33.254Z,52.42
2023-02-20T09:50:06.082Z,51.38
2023-02-20T09:52:43.139Z,50.99
2023-02-20T09:55:19.916Z,50.85
2023-02-20T09:57:52.662Z,50.59
2023-02-20T10:00:33.238Z,49.84
2023-02-20T10:03:16.503Z,49.56
2023-02-20T10:05:49.521Z,49.51
2023-02-20T10:08:25.565Z,49.08
2023-02-20T10:11:00.733Z,48.55
2023-02-20T10:13:51.506Z,48.53
2023-02-20T10:16:35.106Z,47.72
2023-02-20T10:19:17.172Z,48.36
2023-02-20T10:21:59.270Z,48.31
2023-02-20T10:24:54.059Z,49.07
2023-02-20T10:27:33.920Z,49.92
2023-02-20T10:30:06.556Z,49.66
2023-02-20T10:32:47.368Z,49.46
2023-02-20T10:35:21.834Z,49.72
2023-02-20T10:37:57.863Z,49.73
2023-02-20T10:40:34.522Z,49.47
2023-02-20T10:43:08.849Z,49.77
2023-02-20T10:45:47.706Z,49.76
2023-02-20T10:48:23.253Z,49.10
2023-02-20T10:50:57.819Z,49.85
2023-02-20T10:53:35.382Z,49.42
2023-02-20T10:56:12.840Z,49.26
2023-02-20T10:58:48.404Z,49.65
2023-02-20T11:01:23.892Z,49.45
2023-02-20T11:04:03.821Z,50.43
2023-02-20T11:06:39.388Z,49.98
2023-02-20T11:09:10.784Z,49.70
2023-02-20T11:11:45.082Z,48.75
2023-02-20T11:14:17.285Z,48.98
2023-02-20T11:16:54.371Z,49.74
2023-02-20T11:19:33.385Z,49.85
2023-02-20T11:22:03.566Z,49.64
2023-02-20T11:24:38.328Z,49.77
2023-02-20T11:27:12.735Z,50.35
2023-02-20T11:29:52.768Z,50.74
2023-02-20T11:32:30.308Z,50.82
2023-02-20T11:35:33.450Z,50.79
2023-02-20T11:38:43.100Z,50.98
2023-02-20T11:41:32.397Z,51.26
2023-02-20T11:44:23.280Z,51.93
2023-02-20T11:47:28.993Z,52.15
2023-02-20T11:50:21.200Z,52.77
2023-02-20T11:53:06.219Z,52.95
2023-02-20T11:55:37.014Z,52.76
2023-02-20T11:58:07.096Z,52.87
2023-02-20T12:00:48.765Z,52.72
2023-02-20T12:03:24.483Z,52.54
2023-02-20T12:05:55.248Z,52.77
2023-02-20T12:09:01.994Z,53.14
2023-02-20T12:11:32.836Z,53.39
2023-02-20T12:14:03.640Z,53.59
2023-02-20T12:16:56.020Z,53.60
2023-02-20T12:19:34.496Z,53.74
2023-02-20T12:22:18.248Z,53.93
2023-02-20T12:25:10.917Z,54.19
2023-02-20T12:28:00.375Z,54.36
2023-02-20T12:30:49.803Z,54.26
2023-02-20T12:33:44.062Z,54.28
2023-02-20T12:36:25.055Z,54.55
2023-02-20T12:39:01.399Z,54.27
2023-02-20T12:41:47.516Z,54.29
2023-02-20T12:44:36.821Z,54.49
2023-02-20T12:47:19.452Z,54.47
2023-02-20T12:50:21.013Z,54.82
2023-02-20T12:53:20.963Z,54.87
2023-02-20T12:56:02.353Z,54.89
2023-02-20T12:58:46.190Z,55.05
2023-02-20T13:01:22.801Z,55.11
2023-02-20T13:04:06.089Z,55.17
2023-02-20T13:06:42.820Z,55.27
2023-02-20T13:09:22.968Z,55.39
2023-02-20T13:11:57.541Z,55.97
2023-02-20T13:14:49.543Z,55.99
2023-02-20T13:17:33.716Z,56.57
2023-02-20T13:20:14.711Z,56.97
2023-02-20T13:22:44.752Z,57.02
2023-02-20T13:25:42.010Z,57.41
2023-02-20T13:28:29.735Z,57.34
2023-02-20T13:31:14.668Z,57.50
2023-02-20T13:33:46.610Z,57.85
2023-02-20T13:36:39.859Z,57.96
2023-02-20T13:39:45.642Z,58.25
2023-02-20T13:42:33.574Z,58.30
2023-02-20T13:45:04.160Z,58.74
2023-02-20T13:47:44.470Z,59.07
2023-02-20T13:50:31.905Z,59.40
2023-02-20T13:53:08.996Z,59.55
2023-02-20T13:55:39.441Z,59.35
2023-02-20T13:58:20.167Z,59.59
2023-02-20T14:00:55.255Z,59.82
2023-02-20T14:03:30.636Z,59.87
2023-02-20T14:06:11.739Z,59.97
2023-02-20T14:08:44.465Z,59.76
2023-02-20T14:11:17.536Z,59.72
2023-02-20T14:13:58.674Z,59.95
2023-02-20T14:16:33.433Z,59.97
2023-02-20T14:19:06.454Z,60.12
2023-02-20T14:21:39.142Z,60.11
2023-02-20T14:24:21.640Z,60.24
2023-02-20T14:26:55.997Z,60.23
2023-02-20T14:29:31.818Z,60.31
2023-02-20T14:32:04.779Z,59.95
2023-02-20T14:34:55.008Z,59.99
2023-02-20T14:37:32.660Z,59.81
2023-02-20T14:40:08.417Z,59.86
2023-02-20T14:42:44.388Z,59.96
2023-02-20T14:45:23.920Z,60.10
2023-02-20T14:47:54.645Z,59.95
2023-02-20T14:50:29.219Z,59.55
2023-02-20T14:53:07.318Z,59.67
2023-02-20T14:55:55.041Z,59.19
2023-02-20T14:58:31.463Z,59.26
2023-02-20T15:01:18.841Z,59.17
2023-02-20T15:04:05.165Z,58.86
2023-02-20T15:06:40.550Z,58.75
2023-02-20T15:09:21.842Z,58.31
2023-02-20T15:11:57.990Z,58.29
2023-02-20T15:14:30.695Z,58.90
2023-02-20T15:17:24.008Z,58.74
2023-02-20T15:19:54.925Z,58.53
2023-02-20T15:22:30.747Z,58.64
2023-02-20T15:25:29.340Z,58.09
2023-02-20T15:28:11.193Z,57.82
2023-02-20T15:31:06.903Z,58.17
2023-02-20T15:33:43.346Z,57.83
2023-02-20T15:36:22.766Z,58.06
2023-02-20T15:38:55.869Z,58.02
2023-02-20T15:41:26.775Z,58.13
2023-02-20T15:43:56.834Z,58.31
2023-02-20T15:46:27.060Z,58.07
2023-02-20T15:49:00.676Z,58.25
2023-02-20T15:51:32.105Z,58.55
2023-02-20T15:54:02.580Z,58.49
2023-02-20T15:56:35.591Z,58.51
2023-02-20T15:59:09.510Z,58.63
2023-02-20T16:01:39.712Z,58.70
2023-02-20T16:04:15.777Z,58.68
2023-02-20T16:06:49.842Z,58.79
2023-02-20T16:09:19.885Z,58.96
2023-02-20T16:11:50.490Z,59.27
2023-02-20T16:14:23.557Z,59.20
2023-02-20T16:16:56.062Z,59.33
2023-02-20T16:19:41.704Z,59.65
2023-02-20T16:22:13.948Z,59.56
2023-02-20T16:24:44.764Z,59.80
2023-02-20T16:27:24.030Z,60.00
2023-02-20T16:29:55.714Z,60.27
2023-02-20T16:32:27.591Z,60.42
2023-02-20T16:35:01.887Z,60.68
2023-02-20T16:37:32.579Z,60.96
2023-02-20T16:40:02.615Z,61.17
2023-02-20T16:42:35.409Z,61.23
2023-02-20T16:45:08.618Z,61.60
2023-02-20T16:47:38.625Z,63.36
2023-02-20T16:50:20.075Z,62.82
2023-02-20T16:52:53.010Z,62.49
2023-02-20T16:55:25.958Z,62.48
2023-02-20T16:57:59.422Z,62.70
2023-02-20T17:00:31.595Z,63.12
2023-02-20T17:03:01.682Z,63.19
2023-02-20T17:08:36.688Z,63.26
2023-02-20T17:11:09.524Z,63.64
2023-02-20T17:13:39.904Z,63.55
2023-02-20T17:16:12.828Z,63.88
2023-02-20T17:18:45.226Z,63.92
2023-02-20T17:21:17.966Z,63.97
2023-02-20T17:23:48.254Z,64.10
2023-02-20T17:26:18.317Z,63.87
2023-02-20T17:28:48.488Z,63.81
2023-02-20T17:31:18.651Z,63.79
2023-02-20T17:33:48.731Z,63.92
2023-02-20T17:36:21.454Z,63.98
2023-02-20T17:38:51.937Z,64.10
2023-02-20T17:41:22.470Z,64.20
2023-02-20T17:43:52.686Z,64.34
2023-02-20T17:46:23.691Z,64.63
2023-02-20T17:48:53.814Z,64.61
2023-02-20T17:51:26.746Z,64.93
2023-02-20T17:53:57.257Z,64.65
2023-02-20T17:56:27.622Z,64.74
2023-02-20T17:58:58.005Z,64.58
2023-02-20T18:01:28.633Z,64.53
2023-02-20T18:03:58.821Z,64.92
2023-02-20T18:06:34.574Z,64.54
2023-02-20T18:09:06.030Z,64.55
2023-02-20T18:11:36.999Z,64.75
2023-02-20T18:14:07.585Z,64.77
2023-02-20T18:16:47.729Z,64.92
2023-02-20T18:19:18.731Z,65.10
2023-02-20T18:21:52.863Z,65.21
2023-02-20T18:24:26.495Z,64.94
2023-02-20T18:26:57.149Z,65.12
2023-02-20T18:29:29.962Z,65.24
2023-02-20T18:32:02.574Z,65.24
2023-02-20T18:34:34.498Z,65.58
2023-02-20T18:37:07.328Z,65.92
2023-02-20T18:39:37.296Z,66.07
2023-02-20T18:42:08.063Z,66.16
2023-02-20T18:44:38.369Z,66.30
2023-02-20T18:47:09.389Z,66.38
2023-02-20T18:49:39.526Z,66.67
2023-02-20T18:52:12.347Z,66.68
2023-02-20T18:54:42.468Z,66.65
2023-02-20T18:57:13.399Z,66.50
2023-02-20T18:59:44.560Z,66.85
2023-02-20T19:02:15.824Z,66.79
2023-02-20T19:04:46.334Z,66.84
2023-02-20T19:07:19.032Z,67.18
2023-02-20T19:09:50.644Z,67.37
2023-02-20T19:12:20.734Z,67.28
2023-02-20T19:14:50.799Z,67.03
2023-02-20T19:17:21.206Z,67.26
2023-02-20T19:19:52.037Z,67.52
2023-02-20T19:22:28.585Z,67.85
2023-02-20T19:25:01.486Z,67.58
2023-02-20T19:27:31.695Z,67.78
2023-02-20T19:30:01.931Z,67.50
2023-02-20T19:32:32.080Z,67.49
2023-02-20T19:35:02.173Z,67.25
2023-02-20T19:37:34.963Z,67.75
2023-02-20T19:40:05.214Z,67.60
2023-02-20T19:42:35.141Z,67.08
2023-02-20T19:45:05.254Z,67.15
2023-02-20T19:47:36.900Z,67.08
2023-02-20T19:50:08.167Z,67.03
2023-02-20T19:52:44.153Z,67.11
2023-02-20T19:55:20.457Z,66.67
2023-02-20T19:57:54.793Z,66.31
2023-02-20T20:00:25.143Z,66.38
2023-02-20T20:02:57.654Z,66.29
2023-02-20T20:05:28.537Z,66.30
2023-02-20T20:08:01.379Z,66.48
2023-02-20T20:10:31.811Z,66.24
2023-02-20T20:13:01.846Z,66.40
2023-02-20T20:15:33.277Z,66.20
2023-02-20T20:18:04.556Z,65.79
2023-02-20T20:20:36.484Z,65.68
2023-02-20T20:23:09.268Z,65.84
2023-02-20T20:25:39.332Z,65.65
2023-02-20T20:28:10.178Z,65.86
2023-02-20T20:30:41.402Z,65.77
2023-02-20T20:33:12.247Z,65.99
2023-02-20T20:35:42.270Z,65.77
2023-02-20T20:38:14.973Z,65.99
2023-02-20T20:40:45.036Z,66.01
2023-02-20T20:43:16.391Z,65.64
2023-02-20T20:45:46.455Z,65.65
2023-02-20T20:48:16.460Z,65.56
2023-02-20T20:50:46.525Z,65.46
2023-02-20T20:53:19.364Z,65.64
2023-02-20T20:55:49.681Z,65.30
2023-02-20T20:58:19.842Z,65.58
2023-02-20T21:00:50.030Z,65.46
2023-02-20T21:03:23.130Z,65.25
2023-02-20T21:05:53.373Z,64.87
2023-02-20T21:08:26.159Z,64.86
2023-02-20T21:10:56.344Z,65.04
2023-02-20T21:13:26.446Z,65.09
2023-02-20T21:15:56.924Z,64.88
2023-02-20T21:18:27.031Z,65.03
2023-02-20T21:21:01.635Z,65.01
2023-02-20T21:23:34.463Z,65.29
2023-02-20T21:26:04.704Z,65.30
2023-02-20T21:28:34.820Z,65.11
2023-02-20T21:31:05.038Z,64.99
2023-02-20T21:33:35.261Z,65.38
2023-02-20T21:36:06.692Z,65.35
2023-02-20T21:38:39.563Z,65.31
2023-02-20T21:41:32.127Z,65.28
2023-02-20T21:44:14.922Z,65.14
2023-02-20T21:46:45.161Z,65.27
2023-02-20T21:49:16.421Z,65.50
2023-02-20T21:51:46.908Z,65.09
2023-02-20T21:54:20.978Z,65.17
2023-02-20T21:56:51.122Z,65.09
2023-02-20T21:59:18.342Z,64.98
2023-02-20T22:01:45.724Z,65.22
2023-02-20T22:04:14.373Z,65.09
2023-02-20T22:06:44.439Z,64.96
2023-02-20T22:09:32.115Z,64.94
2023-02-20T22:12:14.678Z,65.00
2023-02-20T22:14:57.266Z,64.99
2023-02-20T22:17:39.586Z,64.92
2023-02-20T22:20:23.208Z,65.23
2023-02-20T22:23:05.800Z,65.19
2023-02-20T22:25:50.806Z,65.44
2023-02-20T22:28:33.340Z,65.98
2023-02-20T22:31:16.462Z,66.11
2023-02-20T22:33:59.127Z,66.48
2023-02-20T22:36:42.060Z,66.90
2023-02-20T22:39:28.733Z,67.04
2023-02-20T22:42:15.358Z,67.07
2023-02-20T22:44:59.236Z,66.98
2023-02-20T22:47:41.721Z,66.96
2023-02-20T22:50:24.642Z,66.89
2023-02-20T22:53:07.087Z,66.81
2023-02-20T22:55:49.514Z,66.53
2023-02-20T22:58:34.689Z,66.89
2023-02-20T23:01:20.264Z,66.74
2023-02-20T23:04:02.687Z,66.99
2023-02-20T23:06:45.169Z,67.06
2023-02-20T23:09:28.214Z,67.24
2023-02-20T23:12:11.331Z,67.54
2023-02-20T23:14:57.081Z,67.42
2023-02-20T23:17:39.503Z,67.47
2023-02-20T23:20:25.536Z,67.78
2023-02-20T23:23:08.182Z,68.45
2023-02-20T23:25:50.630Z,68.91
2023-02-20T23:28:37.498Z,68.89
2023-02-20T23:31:22.716Z,68.88
2023-02-20T23:34:05.109Z,68.68
2023-02-20T23:36:47.615Z,68.87
2023-02-20T23:39:30.150Z,68.74
2023-02-20T23:42:12.663Z,68.89
2023-02-20T23:44:55.031Z,68.88
2023-02-20T23:47:40.225Z,69.29
2023-02-20T23:50:23.260Z,69.21
2023-02-20T23:53:05.715Z,69.20
2023-02-20T23:55:48.130Z,69.38
2023-02-20T23:58:30.558Z,69.32
